createdAt,value
2019-02-12T00:00:00.653Z,4.50
2019-02-12T00:02:28.298Z,3.83
2019-02-12T00:04:55.821Z,3.70
2019-02-12T00:07:23.961Z,4.33
2019-02-12T00:09:51.349Z,5.43
2019-02-12T00:12:18.637Z,4.47
2019-02-12T00:14:46.124Z,4.47
2019-02-12T00:17:14.111Z,4.30
2019-02-12T00:19:42.534Z,4.67
2019-02-12T00:22:10.305Z,5.43
2019-02-12T00:24:38.152Z,5.03
2019-02-12T00:27:05.917Z,4.80
2019-02-12T00:29:33.265Z,5.40
2019-02-12T00:32:00.727Z,4.40
2019-02-12T00:34:28.019Z,4.27
2019-02-12T00:36:55.458Z,4.83
2019-02-12T00:39:23.527Z,4.00
2019-02-12T00:41:51.342Z,4.30
2019-02-12T00:44:18.618Z,4.27
2019-02-12T00:46:45.999Z,4.23
2019-02-12T00:49:13.834Z,3.90
2019-02-12T00:51:42.174Z,3.37
2019-02-12T00:54:09.961Z,3.57
2019-02-12T00:56:37.175Z,3.90
2019-02-12T00:59:05.152Z,4.17
2019-02-12T01:01:32.691Z,2.90
2019-02-12T01:04:02.034Z,3.27
2019-02-12T01:06:29.619Z,3.37
2019-02-12T01:08:57.390Z,4.17
2019-02-12T01:11:24.967Z,2.90
2019-02-12T01:13:53.383Z,3.60
2019-02-12T01:16:20.766Z,3.37
2019-02-12T01:18:48.380Z,3.17
2019-02-12T01:21:15.817Z,3.77
2019-02-12T01:23:43.220Z,2.90
2019-02-12T01:26:10.614Z,3.17
2019-02-12T01:28:38.160Z,3.00
2019-02-12T01:31:05.959Z,3.27
2019-02-12T01:33:33.440Z,3.53
2019-02-12T01:36:01.196Z,3.23
2019-02-12T01:38:28.458Z,2.87
2019-02-12T01:40:55.944Z,2.60
2019-02-12T01:43:23.204Z,3.10
2019-02-12T01:45:50.779Z,2.60
2019-02-12T01:48:18.248Z,2.67
2019-02-12T01:50:46.386Z,2.80
2019-02-12T01:53:13.573Z,3.80
2019-02-12T01:55:41.118Z,2.80
2019-02-12T01:58:09.118Z,2.80
2019-02-12T02:00:37.170Z,2.97
2019-02-12T02:03:04.991Z,2.77
2019-02-12T02:05:32.365Z,4.07
2019-02-12T02:07:59.584Z,3.83
2019-02-12T02:10:27.355Z,3.43
2019-02-12T02:12:55.039Z,3.37
2019-02-12T02:15:22.297Z,3.07
2019-02-12T02:17:50.251Z,3.37
2019-02-12T02:20:18.461Z,3.93
2019-02-12T02:22:45.986Z,4.13
2019-02-12T02:25:14.007Z,3.87
2019-02-12T02:27:41.415Z,2.90
2019-02-12T02:30:10.780Z,4.47
2019-02-12T02:32:38.044Z,4.13
2019-02-12T02:35:05.618Z,4.50
2019-02-12T02:37:33.096Z,2.93
2019-02-12T02:40:00.709Z,4.00
2019-02-12T02:42:28.051Z,3.47
2019-02-12T02:44:55.513Z,3.80
2019-02-12T02:47:23.121Z,3.67
2019-02-12T02:49:51.198Z,4.20
2019-02-12T02:52:19.165Z,3.77
2019-02-12T02:54:46.831Z,4.03
2019-02-12T02:57:14.688Z,3.90
2019-02-12T02:59:42.311Z,3.73
2019-02-12T03:02:10.270Z,3.10
2019-02-12T03:04:37.580Z,3.07
2019-02-12T03:07:05.886Z,3.87
2019-02-12T03:09:33.582Z,3.27
2019-02-12T03:12:01.141Z,3.27
2019-02-12T03:14:28.284Z,3.57
2019-02-12T03:16:55.789Z,3.07
2019-02-12T03:19:23.074Z,3.40
2019-02-12T03:21:50.889Z,2.87
2019-02-12T03:24:18.468Z,3.27
2019-02-12T03:26:46.102Z,4.00
2019-02-12T03:29:13.624Z,3.33
2019-02-12T03:31:42.985Z,2.97
2019-02-12T03:34:11.438Z,2.97
2019-02-12T03:36:39.159Z,3.00
2019-02-12T03:39:06.919Z,3.27
2019-02-12T03:41:34.156Z,3.37
2019-02-12T03:44:01.999Z,4.13
2019-02-12T03:46:30.310Z,2.90
2019-02-12T03:48:57.985Z,3.33
2019-02-12T03:51:26.007Z,3.47
2019-02-12T03:53:53.428Z,3.60
2019-02-12T03:56:21.405Z,2.77
2019-02-12T03:58:49.091Z,3.60
2019-02-12T04:01:16.574Z,2.50
2019-02-12T04:03:45.220Z,2.50
2019-02-12T04:06:12.684Z,3.83
2019-02-12T04:08:40.271Z,3.40
2019-02-12T04:11:07.655Z,3.70
2019-02-12T04:13:35.415Z,3.10
2019-02-12T04:16:02.927Z,3.37
2019-02-12T04:18:30.499Z,3.80
2019-02-12T04:20:58.739Z,3.80
2019-02-12T04:23:27.029Z,4.50
2019-02-12T04:25:54.890Z,4.20
2019-02-12T04:28:22.267Z,4.00
2019-02-12T04:30:49.550Z,4.00
2019-02-12T04:33:17.336Z,3.90
2019-02-12T04:35:45.108Z,4.27
2019-02-12T04:38:12.776Z,3.73
2019-02-12T04:40:40.435Z,3.90
2019-02-12T04:43:08.411Z,3.80
2019-02-12T04:45:35.672Z,4.00
2019-02-12T04:48:03.184Z,4.03
2019-02-12T04:50:30.934Z,3.77
2019-02-12T04:52:58.575Z,3.47
2019-02-12T04:55:26.247Z,3.97
2019-02-12T04:57:53.559Z,3.27
2019-02-12T05:00:21.266Z,3.67
2019-02-12T05:02:48.807Z,3.97
2019-02-12T05:05:16.499Z,4.27
2019-02-12T05:07:43.757Z,3.23
2019-02-12T05:10:13.849Z,3.10
2019-02-12T05:12:41.283Z,3.30
2019-02-12T05:15:09.069Z,3.63
2019-02-12T05:17:36.776Z,5.10
2019-02-12T05:20:07.361Z,4.00
2019-02-12T05:22:43.238Z,3.33
2019-02-12T05:25:05.338Z,3.93
2019-02-12T05:27:33.325Z,4.20
2019-02-12T05:30:00.868Z,3.23
2019-02-12T05:32:29.131Z,3.93
2019-02-12T05:34:57.156Z,4.10
2019-02-12T05:37:24.658Z,4.03
2019-02-12T05:39:52.330Z,3.50
2019-02-12T05:42:20.008Z,4.30
2019-02-12T05:44:47.537Z,4.33
2019-02-12T05:47:14.918Z,4.30
2019-02-12T05:49:42.509Z,4.60
2019-02-12T05:52:09.892Z,3.50
2019-02-12T05:54:37.344Z,4.00
2019-02-12T05:57:05.100Z,5.40
2019-02-12T05:59:32.482Z,5.00
2019-02-12T06:01:59.612Z,4.40
2019-02-12T06:04:26.913Z,4.57
2019-02-12T06:06:54.852Z,4.13
2019-02-12T06:09:22.166Z,6.90
2019-02-12T06:11:49.693Z,4.80
2019-02-12T06:14:17.302Z,4.00
2019-02-12T06:16:44.763Z,3.90
2019-02-12T06:19:12.169Z,3.83
2019-02-12T06:21:39.447Z,3.70
2019-02-12T06:24:07.195Z,4.50
2019-02-12T06:26:35.714Z,4.10
2019-02-12T06:29:03.308Z,3.80
2019-02-12T06:31:30.531Z,3.73
2019-02-12T06:33:57.973Z,4.53
2019-02-12T06:36:25.254Z,3.80
2019-02-12T06:38:53.332Z,3.20
2019-02-12T06:41:21.355Z,3.77
2019-02-12T06:43:49.091Z,4.03
2019-02-12T06:46:16.824Z,3.43
2019-02-12T06:48:44.010Z,3.13
2019-02-12T06:51:11.277Z,4.50
2019-02-12T06:53:39.031Z,3.47
2019-02-12T06:56:06.419Z,4.10
2019-02-12T06:58:34.005Z,4.30
2019-02-12T07:01:01.686Z,3.87
2019-02-12T07:04:03.908Z,4.30
2019-02-12T07:07:28.668Z,3.70
2019-02-12T07:10:08.242Z,3.70
2019-02-12T07:13:16.330Z,3.57
2019-02-12T07:16:08.941Z,3.83
2019-02-12T07:19:29.885Z,4.60
2019-02-12T07:22:45.073Z,4.07
2019-02-12T07:25:58.070Z,3.50
2019-02-12T07:29:27.394Z,4.27
2019-02-12T07:32:53.609Z,3.23
2019-02-12T07:35:54.436Z,3.67
2019-02-12T07:39:24.935Z,4.50
2019-02-12T07:42:38.821Z,3.80
2019-02-12T07:45:58.414Z,3.77
2019-02-12T07:49:02.245Z,3.50
2019-02-12T07:52:21.759Z,3.80
2019-02-12T07:55:46.644Z,4.17
2019-02-12T07:59:05.474Z,3.53
2019-02-12T08:02:20.811Z,3.20
2019-02-12T08:05:28.643Z,3.97
2019-02-12T08:08:36.763Z,4.00
2019-02-12T08:11:24.525Z,4.33
2019-02-12T08:14:25.033Z,4.20
2019-02-12T08:17:59.573Z,3.87
2019-02-12T08:21:14.565Z,4.03
2019-02-12T08:24:58.859Z,3.70
2019-02-12T08:28:33.774Z,3.70
2019-02-12T08:32:01.907Z,3.03
2019-02-12T08:35:09.354Z,3.60
2019-02-12T08:38:20.443Z,3.40
2019-02-12T08:41:46.945Z,3.13
2019-02-12T08:44:46.781Z,2.73
2019-02-12T08:47:39.183Z,2.83
2019-02-12T08:50:50.559Z,3.50
2019-02-12T08:53:58.983Z,3.37
2019-02-12T08:57:18.247Z,3.57
2019-02-12T09:00:15.553Z,3.27
2019-02-12T09:03:33.170Z,2.90
2019-02-12T09:07:02.333Z,3.10
2019-02-12T09:10:36.542Z,3.60
2019-02-12T09:14:06.822Z,3.33
2019-02-12T09:17:41.823Z,3.17
2019-02-12T09:21:05.561Z,3.30
2019-02-12T09:24:10.794Z,3.40
2019-02-12T09:27:48.781Z,3.13
2019-02-12T09:31:33.642Z,3.13
2019-02-12T09:35:12.223Z,3.17
2019-02-12T09:38:46.302Z,3.67
2019-02-12T09:41:36.532Z,3.40
2019-02-12T09:44:52.660Z,3.73
2019-02-12T09:48:06.623Z,3.17
2019-02-12T09:51:24.136Z,3.60
2019-02-12T09:54:43.509Z,3.87
2019-02-12T09:57:54.471Z,3.37
2019-02-12T10:00:50.800Z,4.30
2019-02-12T10:04:31.530Z,3.90
2019-02-12T10:07:29.266Z,4.10
2019-02-12T10:10:20.410Z,3.40
2019-02-12T10:13:42.437Z,3.77
2019-02-12T10:16:43.280Z,3.33
2019-02-12T10:19:30.202Z,4.00
2019-02-12T10:23:06.192Z,3.37
2019-02-12T10:25:38.000Z,3.20
2019-02-12T10:29:09.214Z,3.40
2019-02-12T10:31:42.304Z,3.53
2019-02-12T10:34:11.042Z,3.93
2019-02-12T10:36:38.701Z,3.77
2019-02-12T10:39:11.542Z,3.03
2019-02-12T10:41:39.002Z,3.13
2019-02-12T10:44:06.609Z,2.93
2019-02-12T10:46:34.632Z,2.90
2019-02-12T10:49:02.129Z,3.57
2019-02-12T10:51:30.485Z,3.10
2019-02-12T10:53:58.101Z,3.20
2019-02-12T10:56:26.183Z,3.23
2019-02-12T10:58:54.056Z,3.20
2019-02-12T11:01:21.314Z,2.77
2019-02-12T11:03:48.874Z,3.13
2019-02-12T11:06:16.112Z,3.07
2019-02-12T11:08:44.001Z,2.80
2019-02-12T11:11:11.612Z,3.30
2019-02-12T11:13:41.214Z,2.87
2019-02-12T11:16:08.598Z,2.80
2019-02-12T11:18:36.254Z,2.90
2019-02-12T11:21:11.540Z,2.53
2019-02-12T11:23:33.527Z,2.50
2019-02-12T11:26:01.167Z,2.30
2019-02-12T11:28:29.283Z,3.83
2019-02-12T11:30:57.047Z,2.37
2019-02-12T11:33:25.032Z,2.87
2019-02-12T11:35:52.733Z,2.40
2019-02-12T11:38:20.644Z,3.53
2019-02-12T11:40:48.218Z,2.93
2019-02-12T11:43:15.519Z,3.13
2019-02-12T11:45:42.744Z,3.00
2019-02-12T11:48:10.413Z,3.07
2019-02-12T11:50:37.655Z,3.20
2019-02-12T11:53:05.835Z,2.90
2019-02-12T11:55:36.852Z,2.60
2019-02-12T11:58:04.426Z,3.70
2019-02-12T12:00:38.287Z,3.03
2019-02-12T12:03:05.892Z,3.13
2019-02-12T12:05:34.018Z,2.43
2019-02-12T12:08:01.848Z,3.20
2019-02-12T12:10:29.594Z,2.77
2019-02-12T12:12:57.733Z,2.60
2019-02-12T12:15:25.189Z,2.50
2019-02-12T12:17:52.682Z,2.53
2019-02-12T12:20:21.308Z,2.50
2019-02-12T12:22:49.362Z,2.63
2019-02-12T12:25:19.161Z,2.37
2019-02-12T12:27:47.435Z,2.70
2019-02-12T12:30:15.342Z,2.60
2019-02-12T12:32:43.044Z,2.50
2019-02-12T12:35:11.277Z,2.30
2019-02-12T12:37:38.812Z,2.80
2019-02-12T12:40:06.727Z,2.10
2019-02-12T12:42:34.249Z,2.37
2019-02-12T12:45:05.134Z,3.17
2019-02-12T12:47:32.753Z,2.43
2019-02-12T12:50:00.337Z,2.90
2019-02-12T12:52:27.889Z,2.80
2019-02-12T12:54:59.902Z,2.60
2019-02-12T12:57:26.882Z,2.10
2019-02-12T12:59:54.969Z,1.80
2019-02-12T13:02:22.634Z,2.10
2019-02-12T13:04:50.071Z,2.40
2019-02-12T13:07:17.356Z,2.40
2019-02-12T13:09:44.709Z,2.00
2019-02-12T13:12:12.256Z,2.30
2019-02-12T13:14:40.318Z,2.07
2019-02-12T13:17:07.942Z,2.07
2019-02-12T13:19:35.164Z,1.90
2019-02-12T13:22:03.030Z,2.20
2019-02-12T13:24:30.297Z,2.40
2019-02-12T13:26:58.655Z,1.83
2019-02-12T13:29:25.915Z,1.97
2019-02-12T13:31:57.004Z,2.03
2019-02-12T13:34:24.666Z,2.40
2019-02-12T13:36:52.438Z,2.13
2019-02-12T13:39:20.126Z,2.13
2019-02-12T13:41:47.672Z,2.30
2019-02-12T13:44:15.069Z,2.27
2019-02-12T13:46:42.648Z,3.43
2019-02-12T13:49:10.514Z,2.67
2019-02-12T13:51:38.594Z,2.90
2019-02-12T13:54:06.094Z,2.37
2019-02-12T13:56:33.790Z,2.27
2019-02-12T13:59:01.672Z,2.30
2019-02-12T14:01:29.046Z,1.80
2019-02-12T14:03:57.245Z,1.97
2019-02-12T14:06:25.099Z,2.13
2019-02-12T14:08:52.279Z,2.37
2019-02-12T14:11:19.918Z,2.00
2019-02-12T14:13:48.123Z,2.20
2019-02-12T14:16:15.420Z,2.40
2019-02-12T14:18:43.281Z,2.50
2019-02-12T14:21:10.527Z,1.93
2019-02-12T14:23:37.682Z,2.20
2019-02-12T14:26:05.507Z,2.43
2019-02-12T14:28:32.928Z,2.57
2019-02-12T14:31:01.153Z,3.10
2019-02-12T14:33:28.542Z,2.90
2019-02-12T14:35:56.022Z,2.20
2019-02-12T14:38:23.785Z,2.63
2019-02-12T14:40:51.444Z,2.57
2019-02-12T14:43:19.249Z,2.50
2019-02-12T14:45:46.392Z,2.40
2019-02-12T14:48:13.767Z,2.60
2019-02-12T14:50:41.562Z,2.30
2019-02-12T14:53:09.717Z,2.00
2019-02-12T14:55:37.420Z,1.83
2019-02-12T14:58:04.847Z,2.10
2019-02-12T15:00:32.658Z,2.63
2019-02-12T15:03:00.115Z,2.30
2019-02-12T15:05:28.163Z,2.13
2019-02-12T15:07:55.969Z,2.60
2019-02-12T15:10:23.941Z,2.20
2019-02-12T15:12:51.624Z,2.50
2019-02-12T15:15:19.294Z,2.43
2019-02-12T15:17:46.886Z,2.43
2019-02-12T15:20:14.705Z,2.53
2019-02-12T15:22:41.950Z,2.27
2019-02-12T15:25:13.823Z,2.43
2019-02-12T15:27:41.258Z,1.83
2019-02-12T15:30:10.886Z,2.37
2019-02-12T15:32:38.382Z,2.50
2019-02-12T15:35:07.965Z,2.43
2019-02-12T15:37:35.885Z,2.43
2019-02-12T15:40:04.511Z,2.53
2019-02-12T15:42:32.365Z,1.90
2019-02-12T15:44:59.553Z,1.80
2019-02-12T15:47:27.502Z,2.50
2019-02-12T15:49:55.129Z,2.77
2019-02-12T15:52:22.327Z,2.33
2019-02-12T15:54:49.792Z,2.10
2019-02-12T15:57:16.904Z,2.80
2019-02-12T15:59:44.319Z,1.90
2019-02-12T16:02:13.598Z,2.10
2019-02-12T16:04:41.652Z,2.13
2019-02-12T16:07:08.894Z,2.17
2019-02-12T16:09:36.608Z,3.10
2019-02-12T16:12:06.002Z,3.97
2019-02-12T16:14:33.605Z,2.50
2019-02-12T16:17:00.899Z,2.10
2019-02-12T16:19:29.979Z,2.20
2019-02-12T16:21:58.492Z,2.40
2019-02-12T16:24:25.814Z,2.10
2019-02-12T16:26:53.613Z,2.40
2019-02-12T16:29:21.967Z,1.90
2019-02-12T16:31:49.660Z,2.27
2019-02-12T16:34:17.310Z,2.43
2019-02-12T16:36:45.170Z,1.90
2019-02-12T16:39:12.284Z,2.60
2019-02-12T16:41:39.680Z,2.63
2019-02-12T16:44:07.844Z,2.70
2019-02-12T16:46:35.822Z,3.17
2019-02-12T16:49:03.893Z,2.80
2019-02-12T16:51:31.556Z,2.50
2019-02-12T16:53:59.802Z,2.67
2019-02-12T16:56:27.623Z,2.00
2019-02-12T16:59:03.258Z,2.00
2019-02-12T17:01:25.345Z,2.27
2019-02-12T17:03:52.801Z,3.10
2019-02-12T17:06:20.333Z,2.20
2019-02-12T17:08:48.363Z,2.17
2019-02-12T17:11:16.024Z,2.37
2019-02-12T17:13:43.445Z,2.27
2019-02-12T17:16:14.030Z,1.90
2019-02-12T17:18:43.593Z,2.00
2019-02-12T17:21:12.231Z,2.40
2019-02-12T17:23:40.078Z,2.07
2019-02-12T17:26:16.099Z,2.53
2019-02-12T17:28:37.859Z,2.20
2019-02-12T17:31:05.230Z,2.47
2019-02-12T17:33:33.024Z,2.00
2019-02-12T17:36:00.789Z,2.17
2019-02-12T17:38:28.018Z,2.57
2019-02-12T17:40:56.225Z,1.80
2019-02-12T17:43:24.546Z,1.83
2019-02-12T17:45:51.798Z,2.63
2019-02-12T17:48:19.087Z,2.03
2019-02-12T17:50:46.331Z,2.53
2019-02-12T17:53:13.567Z,1.97
2019-02-12T17:55:41.353Z,1.60
2019-02-12T17:58:13.187Z,1.83
2019-02-12T18:00:43.312Z,1.93
2019-02-12T18:03:10.574Z,2.27
2019-02-12T18:05:38.234Z,2.10
2019-02-12T18:08:06.972Z,1.80
2019-02-12T18:10:34.710Z,1.80
2019-02-12T18:13:02.472Z,1.87
2019-02-12T18:15:29.776Z,1.97
2019-02-12T18:17:57.023Z,2.63
2019-02-12T18:20:26.635Z,2.30
2019-02-12T18:22:54.246Z,2.73
2019-02-12T18:25:21.822Z,2.70
2019-02-12T18:27:49.407Z,3.20
2019-02-12T18:30:16.994Z,2.07
2019-02-12T18:32:44.453Z,2.13
2019-02-12T18:35:12.245Z,2.90
2019-02-12T18:37:40.062Z,2.40
2019-02-12T18:40:09.486Z,2.03
2019-02-12T18:42:37.280Z,1.93
2019-02-12T18:45:06.971Z,2.13
2019-02-12T18:47:34.855Z,2.07
2019-02-12T18:50:02.691Z,1.90
2019-02-12T18:52:31.252Z,2.13
2019-02-12T18:54:58.870Z,2.27
2019-02-12T18:57:26.197Z,2.03
2019-02-12T18:59:53.974Z,2.47
2019-02-12T19:02:21.371Z,2.13
2019-02-12T19:04:48.805Z,2.40
2019-02-12T19:07:16.862Z,3.03
2019-02-12T19:09:44.142Z,3.07
2019-02-12T19:12:11.990Z,3.13
2019-02-12T19:14:39.672Z,3.00
2019-02-12T19:17:07.386Z,2.43
2019-02-12T19:19:34.567Z,2.30
2019-02-12T19:22:02.656Z,2.43
2019-02-12T19:24:30.142Z,2.77
2019-02-12T19:26:58.218Z,2.37
2019-02-12T19:29:25.938Z,2.53
2019-02-12T19:31:59.169Z,2.95
2019-02-12T19:34:23.406Z,3.00
2019-02-12T19:36:51.609Z,2.53
2019-02-12T19:39:19.123Z,2.90
2019-02-12T19:41:46.628Z,2.60
2019-02-12T19:44:14.033Z,2.80
2019-02-12T19:46:41.617Z,2.50
2019-02-12T19:49:09.050Z,2.53
2019-02-12T19:51:36.583Z,3.03
2019-02-12T19:54:04.316Z,2.80
2019-02-12T19:56:31.831Z,2.50
2019-02-12T19:58:59.332Z,2.93
2019-02-12T20:01:26.700Z,2.70
2019-02-12T20:03:54.771Z,2.50
2019-02-12T20:06:22.658Z,2.63
2019-02-12T20:08:50.198Z,2.40
2019-02-12T20:11:18.512Z,2.80
2019-02-12T20:13:45.630Z,2.70
2019-02-12T20:16:12.981Z,2.67
2019-02-12T20:18:40.518Z,2.73
2019-02-12T20:21:08.041Z,2.90
2019-02-12T20:23:35.373Z,2.90
2019-02-12T20:26:03.097Z,2.87
2019-02-12T20:28:30.806Z,2.53
2019-02-12T20:30:58.066Z,2.70
2019-02-12T20:33:25.630Z,2.47
2019-02-12T20:35:53.156Z,2.43
2019-02-12T20:38:20.629Z,2.50
2019-02-12T20:40:48.129Z,3.07
2019-02-12T20:43:16.224Z,2.60
2019-02-12T20:45:43.368Z,2.77
2019-02-12T20:48:17.638Z,2.57
2019-02-12T20:50:44.775Z,2.93
2019-02-12T20:53:11.978Z,2.73
2019-02-12T20:55:39.254Z,2.67
2019-02-12T20:58:06.996Z,3.13
2019-02-12T21:00:34.759Z,2.77
2019-02-12T21:03:02.270Z,3.03
2019-02-12T21:05:30.211Z,3.17
2019-02-12T21:07:57.630Z,3.13
2019-02-12T21:10:25.090Z,2.43
2019-02-12T21:12:52.722Z,3.07
2019-02-12T21:15:20.620Z,3.43
2019-02-12T21:17:48.306Z,3.10
2019-02-12T21:20:15.690Z,2.70
2019-02-12T21:22:43.189Z,3.20
2019-02-12T21:25:11.193Z,3.10
2019-02-12T21:27:38.434Z,3.13
2019-02-12T21:30:12.668Z,3.40
2019-02-12T21:32:41.043Z,3.13
2019-02-12T21:35:08.876Z,2.67
2019-02-12T21:37:36.618Z,3.17
2019-02-12T21:40:06.804Z,2.93
2019-02-12T21:42:36.415Z,3.50
2019-02-12T21:45:04.656Z,3.07
2019-02-12T21:47:32.310Z,3.10
2019-02-12T21:49:59.449Z,3.17
2019-02-12T21:52:27.453Z,2.60
2019-02-12T21:54:55.311Z,2.73
2019-02-12T21:57:22.509Z,3.43
2019-02-12T21:59:49.839Z,3.13
2019-02-12T22:02:17.702Z,3.03
2019-02-12T22:04:44.860Z,3.50
2019-02-12T22:07:12.859Z,2.97
2019-02-12T22:09:40.880Z,3.40
2019-02-12T22:12:08.714Z,3.47
2019-02-12T22:14:36.106Z,3.67
2019-02-12T22:17:08.939Z,3.07
2019-02-12T22:19:37.248Z,3.47
2019-02-12T22:22:04.992Z,3.37
2019-02-12T22:24:32.715Z,3.47
2019-02-12T22:26:59.878Z,3.40
2019-02-12T22:29:27.794Z,3.10
2019-02-12T22:31:55.498Z,2.60
2019-02-12T22:34:23.206Z,3.20
2019-02-12T22:36:51.045Z,4.00
2019-02-12T22:39:18.342Z,2.70
2019-02-12T22:41:46.088Z,3.20
2019-02-12T22:44:13.348Z,3.50
2019-02-12T22:46:40.528Z,3.30
2019-02-12T22:49:08.602Z,3.63
2019-02-12T22:51:36.249Z,3.23
2019-02-12T22:54:04.316Z,4.23
2019-02-12T22:56:31.728Z,2.67
2019-02-12T22:58:59.913Z,3.07
2019-02-12T23:01:38.475Z,3.53
2019-02-12T23:04:06.506Z,3.20
2019-02-12T23:06:33.902Z,3.53
2019-02-12T23:09:01.265Z,3.50
2019-02-12T23:11:28.664Z,3.60
2019-02-12T23:13:56.404Z,4.00
2019-02-12T23:16:23.673Z,3.10
2019-02-12T23:18:51.144Z,3.53
2019-02-12T23:21:18.484Z,3.70
2019-02-12T23:23:45.641Z,3.20
2019-02-12T23:26:13.174Z,3.77
2019-02-12T23:28:40.970Z,4.30
2019-02-12T23:31:08.637Z,2.80
2019-02-12T23:33:36.497Z,3.70
2019-02-12T23:36:04.422Z,3.63
2019-02-12T23:38:31.808Z,3.60
2019-02-12T23:40:59.095Z,3.50
2019-02-12T23:43:26.863Z,3.53
2019-02-12T23:45:54.092Z,3.53
2019-02-12T23:48:22.171Z,3.87
2019-02-12T23:50:49.786Z,3.80
2019-02-12T23:53:17.339Z,4.07
2019-02-12T23:55:44.870Z,3.60
2019-02-12T23:58:12.271Z,4.63
